sensor_id;sensor_type;location;lat;lon;timestamp;temperature;humidity
19941;DHT22;10132;50.864;5.176;2023-02-15T00:00:40;2.00;99.90
19941;DHT22;10132;50.864;5.176;2023-02-15T00:02:42;2.10;99.90
19941;DHT22;10132;50.864;5.176;2023-02-15T00:04:44;2.10;99.90
19941;DHT22;10132;50.864;5.176;2023-02-15T00:06:50;2.10;99.90
19941;DHT22;10132;50.864;5.176;2023-02-15T00:08:53;2.00;99.90
19941;DHT22;10132;50.864;5.176;2023-02-15T00:11:04;1.80;99.90
19941;DHT22;10132;50.864;5.176;2023-02-15T00:13:06;1.80;99.90
19941;DHT22;10132;50.864;5.176;2023-02-15T00:15:08;1.60;99.90
19941;DHT22;10132;50.864;5.176;2023-02-15T00:17:11;1.40;99.90
19941;DHT22;10132;50.864;5.176;2023-02-15T00:19:15;1.40;99.90
19941;DHT22;10132;50.864;5.176;2023-02-15T00:21:17;1.20;99.90
19941;DHT22;10132;50.864;5.176;2023-02-15T00:23:21;1.20;99.90
19941;DHT22;10132;50.864;5.176;2023-02-15T00:25:23;1.30;99.90
19941;DHT22;10132;50.864;5.176;2023-02-15T00:27:25;1.40;99.90
19941;DHT22;10132;50.864;5.176;2023-02-15T00:29:27;1.60;99.90
19941;DHT22;10132;50.864;5.176;2023-02-15T00:31:29;1.90;99.90
19941;DHT22;10132;50.864;5.176;2023-02-15T00:33:32;2.10;99.90
19941;DHT22;10132;50.864;5.176;2023-02-15T00:35:34;2.20;99.90
19941;DHT22;10132;50.864;5.176;2023-02-15T00:37:36;2.30;99.90
19941;DHT22;10132;50.864;5.176;2023-02-15T00:39:39;2.30;99.90
19941;DHT22;10132;50.864;5.176;2023-02-15T00:41:41;2.30;99.90
19941;DHT22;10132;50.864;5.176;2023-02-15T00:43:44;2.20;99.90
19941;DHT22;10132;50.864;5.176;2023-02-15T00:45:46;2.20;99.90
19941;DHT22;10132;50.864;5.176;2023-02-15T00:47:48;2.10;99.90
19941;DHT22;10132;50.864;5.176;2023-02-15T00:49:50;2.10;99.90
19941;DHT22;10132;50.864;5.176;2023-02-15T00:51:51;2.10;99.90
19941;DHT22;10132;50.864;5.176;2023-02-15T00:53:54;2.10;99.90
19941;DHT22;10132;50.864;5.176;2023-02-15T00:55:57;1.90;99.90
19941;DHT22;10132;50.864;5.176;2023-02-15T00:57:59;1.60;99.90
19941;DHT22;10132;50.864;5.176;2023-02-15T01:00:01;1.50;99.90
19941;DHT22;10132;50.864;5.176;2023-02-15T01:02:03;1.50;99.90
19941;DHT22;10132;50.864;5.176;2023-02-15T01:04:05;1.60;99.90
19941;DHT22;10132;50.864;5.176;2023-02-15T01:06:07;1.60;99.90
19941;DHT22;10132;50.864;5.176;2023-02-15T01:08:09;1.60;99.90
19941;DHT22;10132;50.864;5.176;2023-02-15T01:10:11;1.60;99.90
19941;DHT22;10132;50.864;5.176;2023-02-15T01:12:14;1.60;99.90
19941;DHT22;10132;50.864;5.176;2023-02-15T01:14:16;1.70;99.90
19941;DHT22;10132;50.864;5.176;2023-02-15T01:16:18;1.60;99.90
19941;DHT22;10132;50.864;5.176;2023-02-15T01:18:20;1.50;99.90
19941;DHT22;10132;50.864;5.176;2023-02-15T01:20:24;1.60;99.90
19941;DHT22;10132;50.864;5.176;2023-02-15T01:22:26;1.70;99.90
19941;DHT22;10132;50.864;5.176;2023-02-15T01:24:28;1.80;99.90
19941;DHT22;10132;50.864;5.176;2023-02-15T01:26:30;1.70;99.90
19941;DHT22;10132;50.864;5.176;2023-02-15T01:28:34;1.40;99.90
19941;DHT22;10132;50.864;5.176;2023-02-15T01:30:36;1.20;99.90
19941;DHT22;10132;50.864;5.176;2023-02-15T01:32:38;1.20;99.90
19941;DHT22;10132;50.864;5.176;2023-02-15T01:34:40;1.30;99.90
19941;DHT22;10132;50.864;5.176;2023-02-15T01:36:44;1.40;99.90
19941;DHT22;10132;50.864;5.176;2023-02-15T01:38:46;1.40;99.90
19941;DHT22;10132;50.864;5.176;2023-02-15T01:40:50;1.30;99.90
19941;DHT22;10132;50.864;5.176;2023-02-15T01:42:54;1.30;99.90
19941;DHT22;10132;50.864;5.176;2023-02-15T01:44:58;1.30;99.90
19941;DHT22;10132;50.864;5.176;2023-02-15T01:47:01;1.10;99.90
19941;DHT22;10132;50.864;5.176;2023-02-15T01:49:08;0.70;99.90
19941;DHT22;10132;50.864;5.176;2023-02-15T01:51:13;0.50;99.90
19941;DHT22;10132;50.864;5.176;2023-02-15T01:53:19;0.60;99.90
19941;DHT22;10132;50.864;5.176;2023-02-15T01:55:23;0.70;99.90
19941;DHT22;10132;50.864;5.176;2023-02-15T01:57:27;0.80;99.90
19941;DHT22;10132;50.864;5.176;2023-02-15T01:59:32;0.90;99.90
19941;DHT22;10132;50.864;5.176;2023-02-15T02:01:37;1.10;99.90
19941;DHT22;10132;50.864;5.176;2023-02-15T02:03:46;1.30;99.90
19941;DHT22;10132;50.864;5.176;2023-02-15T02:05:50;1.30;99.90
19941;DHT22;10132;50.864;5.176;2023-02-15T02:07:54;1.20;99.90
19941;DHT22;10132;50.864;5.176;2023-02-15T02:09:56;1.10;99.90
19941;DHT22;10132;50.864;5.176;2023-02-15T02:11:58;1.00;99.90
19941;DHT22;10132;50.864;5.176;2023-02-15T02:14:00;0.90;99.90
19941;DHT22;10132;50.864;5.176;2023-02-15T02:16:08;0.80;99.90
19941;DHT22;10132;50.864;5.176;2023-02-15T02:18:25;0.70;99.90
19941;DHT22;10132;50.864;5.176;2023-02-15T02:20:59;0.70;99.90
19941;DHT22;10132;50.864;5.176;2023-02-15T02:23:34;0.60;99.90
19941;DHT22;10132;50.864;5.176;2023-02-15T02:26:14;0.50;99.90
19941;DHT22;10132;50.864;5.176;2023-02-15T02:28:40;0.60;99.90
19941;DHT22;10132;50.864;5.176;2023-02-15T02:31:02;0.70;99.90
19941;DHT22;10132;50.864;5.176;2023-02-15T02:33:34;0.90;99.90
19941;DHT22;10132;50.864;5.176;2023-02-15T02:35:46;1.00;99.90
19941;DHT22;10132;50.864;5.176;2023-02-15T02:37:59;1.10;99.90
19941;DHT22;10132;50.864;5.176;2023-02-15T02:40:06;1.00;99.90
19941;DHT22;10132;50.864;5.176;2023-02-15T02:42:13;0.90;99.90
19941;DHT22;10132;50.864;5.176;2023-02-15T02:44:22;0.80;99.90
19941;DHT22;10132;50.864;5.176;2023-02-15T02:46:32;0.80;99.90
19941;DHT22;10132;50.864;5.176;2023-02-15T02:48:36;0.70;99.90
19941;DHT22;10132;50.864;5.176;2023-02-15T02:50:39;0.70;99.90
19941;DHT22;10132;50.864;5.176;2023-02-15T02:52:43;0.70;99.90
19941;DHT22;10132;50.864;5.176;2023-02-15T02:54:45;0.80;99.90
19941;DHT22;10132;50.864;5.176;2023-02-15T02:56:49;1.10;99.90
19941;DHT22;10132;50.864;5.176;2023-02-15T02:58:55;1.30;99.90
19941;DHT22;10132;50.864;5.176;2023-02-15T03:01:03;1.30;99.90
19941;DHT22;10132;50.864;5.176;2023-02-15T03:03:11;1.20;99.90
19941;DHT22;10132;50.864;5.176;2023-02-15T03:05:21;0.90;99.90
19941;DHT22;10132;50.864;5.176;2023-02-15T03:07:26;0.60;99.90
19941;DHT22;10132;50.864;5.176;2023-02-15T03:09:30;0.40;99.90
19941;DHT22;10132;50.864;5.176;2023-02-15T03:11:43;0.40;99.90
19941;DHT22;10132;50.864;5.176;2023-02-15T03:13:47;0.60;99.90
19941;DHT22;10132;50.864;5.176;2023-02-15T03:15:51;0.70;99.90
19941;DHT22;10132;50.864;5.176;2023-02-15T03:18:11;0.70;99.90
19941;DHT22;10132;50.864;5.176;2023-02-15T03:20:18;0.70;99.90
19941;DHT22;10132;50.864;5.176;2023-02-15T03:22:24;0.70;99.90
19941;DHT22;10132;50.864;5.176;2023-02-15T03:24:32;0.70;99.90
19941;DHT22;10132;50.864;5.176;2023-02-15T03:26:37;0.60;99.90
19941;DHT22;10132;50.864;5.176;2023-02-15T03:28:42;0.50;99.90
19941;DHT22;10132;50.864;5.176;2023-02-15T03:30:47;0.30;99.90
19941;DHT22;10132;50.864;5.176;2023-02-15T03:32:51;0.30;99.90
19941;DHT22;10132;50.864;5.176;2023-02-15T03:34:53;0.30;99.90
19941;DHT22;10132;50.864;5.176;2023-02-15T03:37:02;0.20;99.90
19941;DHT22;10132;50.864;5.176;2023-02-15T03:39:12;0.30;99.90
19941;DHT22;10132;50.864;5.176;2023-02-15T03:41:16;0.30;99.90
19941;DHT22;10132;50.864;5.176;2023-02-15T03:43:23;0.30;99.90
19941;DHT22;10132;50.864;5.176;2023-02-15T03:45:30;0.30;99.90
19941;DHT22;10132;50.864;5.176;2023-02-15T03:47:35;0.60;99.90
19941;DHT22;10132;50.864;5.176;2023-02-15T03:49:42;0.70;99.90
19941;DHT22;10132;50.864;5.176;2023-02-15T03:51:47;0.70;99.90
19941;DHT22;10132;50.864;5.176;2023-02-15T03:53:51;0.70;99.90
19941;DHT22;10132;50.864;5.176;2023-02-15T03:55:54;0.60;99.90
19941;DHT22;10132;50.864;5.176;2023-02-15T03:57:57;0.70;99.90
19941;DHT22;10132;50.864;5.176;2023-02-15T04:00:18;0.50;99.90
19941;DHT22;10132;50.864;5.176;2023-02-15T04:03:11;0.30;99.90
19941;DHT22;10132;50.864;5.176;2023-02-15T04:05:14;0.20;99.90
19941;DHT22;10132;50.864;5.176;2023-02-15T04:07:16;0.10;99.90
19941;DHT22;10132;50.864;5.176;2023-02-15T04:09:19;0.00;99.90
19941;DHT22;10132;50.864;5.176;2023-02-15T04:11:41;0.00;99.90
19941;DHT22;10132;50.864;5.176;2023-02-15T04:13:43;0.20;99.90
19941;DHT22;10132;50.864;5.176;2023-02-15T04:15:45;0.30;99.90
19941;DHT22;10132;50.864;5.176;2023-02-15T04:18:04;0.40;99.90
19941;DHT22;10132;50.864;5.176;2023-02-15T04:20:07;0.50;99.90
19941;DHT22;10132;50.864;5.176;2023-02-15T04:22:27;0.70;99.90
19941;DHT22;10132;50.864;5.176;2023-02-15T04:24:47;0.70;99.90
19941;DHT22;10132;50.864;5.176;2023-02-15T04:27:07;0.70;99.90
19941;DHT22;10132;50.864;5.176;2023-02-15T04:29:09;0.50;99.90
19941;DHT22;10132;50.864;5.176;2023-02-15T04:31:11;0.60;99.90
19941;DHT22;10132;50.864;5.176;2023-02-15T04:33:13;0.70;99.90
19941;DHT22;10132;50.864;5.176;2023-02-15T04:35:15;0.70;99.90
19941;DHT22;10132;50.864;5.176;2023-02-15T04:37:17;0.80;99.90
19941;DHT22;10132;50.864;5.176;2023-02-15T04:39:19;0.70;99.90
19941;DHT22;10132;50.864;5.176;2023-02-15T04:41:22;0.80;99.90
19941;DHT22;10132;50.864;5.176;2023-02-15T04:43:24;0.70;99.90
19941;DHT22;10132;50.864;5.176;2023-02-15T04:45:26;0.60;99.90
19941;DHT22;10132;50.864;5.176;2023-02-15T04:47:28;0.60;99.90
19941;DHT22;10132;50.864;5.176;2023-02-15T04:49:30;0.70;99.90
19941;DHT22;10132;50.864;5.176;2023-02-15T04:51:32;0.70;99.90
19941;DHT22;10132;50.864;5.176;2023-02-15T04:53:34;0.50;99.90
19941;DHT22;10132;50.864;5.176;2023-02-15T04:55:36;0.20;99.90
19941;DHT22;10132;50.864;5.176;2023-02-15T04:57:40;0.10;99.90
19941;DHT22;10132;50.864;5.176;2023-02-15T04:59:41;0.00;99.90
19941;DHT22;10132;50.864;5.176;2023-02-15T05:01:43;0.00;99.90
19941;DHT22;10132;50.864;5.176;2023-02-15T05:03:45;-0.10;99.90
19941;DHT22;10132;50.864;5.176;2023-02-15T05:05:47;-0.10;99.90
19941;DHT22;10132;50.864;5.176;2023-02-15T05:07:49;-0.20;99.90
19941;DHT22;10132;50.864;5.176;2023-02-15T05:09:51;-0.20;99.90
19941;DHT22;10132;50.864;5.176;2023-02-15T05:11:53;-0.30;99.90
19941;DHT22;10132;50.864;5.176;2023-02-15T05:13:56;-0.30;99.90
19941;DHT22;10132;50.864;5.176;2023-02-15T05:15:58;-0.30;99.90
19941;DHT22;10132;50.864;5.176;2023-02-15T05:18:00;-0.40;99.90
19941;DHT22;10132;50.864;5.176;2023-02-15T05:20:03;-0.30;99.90
19941;DHT22;10132;50.864;5.176;2023-02-15T05:22:05;-0.40;99.90
19941;DHT22;10132;50.864;5.176;2023-02-15T05:24:07;-0.40;99.90
19941;DHT22;10132;50.864;5.176;2023-02-15T05:26:24;-0.40;99.90
19941;DHT22;10132;50.864;5.176;2023-02-15T05:28:43;-0.50;99.90
19941;DHT22;10132;50.864;5.176;2023-02-15T05:30:47;-0.40;99.90
19941;DHT22;10132;50.864;5.176;2023-02-15T05:32:49;-0.40;99.90
19941;DHT22;10132;50.864;5.176;2023-02-15T05:34:51;-0.30;99.90
19941;DHT22;10132;50.864;5.176;2023-02-15T05:36:53;-0.40;99.90
19941;DHT22;10132;50.864;5.176;2023-02-15T05:38:55;-0.30;99.90
19941;DHT22;10132;50.864;5.176;2023-02-15T05:40:57;-0.30;99.90
19941;DHT22;10132;50.864;5.176;2023-02-15T05:42:59;-0.30;99.90
19941;DHT22;10132;50.864;5.176;2023-02-15T05:45:01;-0.40;99.90
19941;DHT22;10132;50.864;5.176;2023-02-15T05:47:05;-0.40;99.90
19941;DHT22;10132;50.864;5.176;2023-02-15T05:49:08;-0.30;99.90
19941;DHT22;10132;50.864;5.176;2023-02-15T05:51:11;-0.10;99.90
19941;DHT22;10132;50.864;5.176;2023-02-15T05:53:14;-0.10;99.90
19941;DHT22;10132;50.864;5.176;2023-02-15T05:55:16;-0.10;99.90
19941;DHT22;10132;50.864;5.176;2023-02-15T05:57:18;-0.20;99.90
19941;DHT22;10132;50.864;5.176;2023-02-15T05:59:20;-0.30;99.90
19941;DHT22;10132;50.864;5.176;2023-02-15T06:01:22;-0.30;99.90
19941;DHT22;10132;50.864;5.176;2023-02-15T06:03:25;-0.30;99.90
19941;DHT22;10132;50.864;5.176;2023-02-15T06:05:29;-0.30;99.90
19941;DHT22;10132;50.864;5.176;2023-02-15T06:07:31;-0.20;99.90
19941;DHT22;10132;50.864;5.176;2023-02-15T06:09:32;-0.30;99.90
19941;DHT22;10132;50.864;5.176;2023-02-15T06:11:34;-0.30;99.90
19941;DHT22;10132;50.864;5.176;2023-02-15T06:13:36;-0.40;99.90
19941;DHT22;10132;50.864;5.176;2023-02-15T06:15:38;-0.40;99.90
19941;DHT22;10132;50.864;5.176;2023-02-15T06:17:41;-0.40;99.90
19941;DHT22;10132;50.864;5.176;2023-02-15T06:19:44;-0.30;99.90
19941;DHT22;10132;50.864;5.176;2023-02-15T06:21:46;-0.20;99.90
19941;DHT22;10132;50.864;5.176;2023-02-15T06:23:48;-0.10;99.90
19941;DHT22;10132;50.864;5.176;2023-02-15T06:25:50;0.10;99.90
19941;DHT22;10132;50.864;5.176;2023-02-15T06:27:52;0.10;99.90
19941;DHT22;10132;50.864;5.176;2023-02-15T06:29:54;0.20;99.90
19941;DHT22;10132;50.864;5.176;2023-02-15T06:31:56;0.10;99.90
19941;DHT22;10132;50.864;5.176;2023-02-15T06:33:58;0.20;99.90
19941;DHT22;10132;50.864;5.176;2023-02-15T06:36:04;0.20;99.90
19941;DHT22;10132;50.864;5.176;2023-02-15T06:38:06;0.20;99.90
19941;DHT22;10132;50.864;5.176;2023-02-15T06:40:09;0.30;99.90
19941;DHT22;10132;50.864;5.176;2023-02-15T06:42:11;0.30;99.90
19941;DHT22;10132;50.864;5.176;2023-02-15T06:44:13;0.30;99.90
19941;DHT22;10132;50.864;5.176;2023-02-15T06:46:15;0.20;99.90
19941;DHT22;10132;50.864;5.176;2023-02-15T06:48:17;0.10;99.90
19941;DHT22;10132;50.864;5.176;2023-02-15T06:50:19;0.10;99.90
19941;DHT22;10132;50.864;5.176;2023-02-15T06:52:22;0.20;99.90
19941;DHT22;10132;50.864;5.176;2023-02-15T06:54:24;0.40;99.90
19941;DHT22;10132;50.864;5.176;2023-02-15T06:56:26;0.40;99.90
19941;DHT22;10132;50.864;5.176;2023-02-15T06:58:28;0.40;99.90
19941;DHT22;10132;50.864;5.176;2023-02-15T07:00:30;0.20;99.90
19941;DHT22;10132;50.864;5.176;2023-02-15T07:02:32;0.10;99.90
19941;DHT22;10132;50.864;5.176;2023-02-15T07:04:34;-0.10;99.90
19941;DHT22;10132;50.864;5.176;2023-02-15T07:06:36;-0.20;99.90
19941;DHT22;10132;50.864;5.176;2023-02-15T07:08:39;-0.20;99.90
19941;DHT22;10132;50.864;5.176;2023-02-15T07:10:43;-0.30;99.90
19941;DHT22;10132;50.864;5.176;2023-02-15T07:12:45;-0.20;99.90
19941;DHT22;10132;50.864;5.176;2023-02-15T07:14:46;-0.10;99.90
19941;DHT22;10132;50.864;5.176;2023-02-15T07:16:48;0.10;99.90
19941;DHT22;10132;50.864;5.176;2023-02-15T07:18:50;0.20;99.90
19941;DHT22;10132;50.864;5.176;2023-02-15T07:20:52;0.30;99.90
19941;DHT22;10132;50.864;5.176;2023-02-15T07:22:54;0.50;99.90
19941;DHT22;10132;50.864;5.176;2023-02-15T07:24:58;0.60;99.90
19941;DHT22;10132;50.864;5.176;2023-02-15T07:27:00;0.70;99.90
19941;DHT22;10132;50.864;5.176;2023-02-15T07:29:01;1.00;99.90
19941;DHT22;10132;50.864;5.176;2023-02-15T07:31:04;1.10;99.90
19941;DHT22;10132;50.864;5.176;2023-02-15T07:33:06;1.20;99.90
19941;DHT22;10132;50.864;5.176;2023-02-15T07:35:27;1.20;99.90
19941;DHT22;10132;50.864;5.176;2023-02-15T07:37:29;1.40;99.90
19941;DHT22;10132;50.864;5.176;2023-02-15T07:39:31;1.60;99.90
19941;DHT22;10132;50.864;5.176;2023-02-15T07:41:34;1.70;99.90
19941;DHT22;10132;50.864;5.176;2023-02-15T07:43:38;1.80;99.90
19941;DHT22;10132;50.864;5.176;2023-02-15T07:45:40;1.90;99.90
19941;DHT22;10132;50.864;5.176;2023-02-15T07:47:42;2.20;99.90
19941;DHT22;10132;50.864;5.176;2023-02-15T07:49:44;2.40;99.90
19941;DHT22;10132;50.864;5.176;2023-02-15T07:51:46;2.50;99.90
19941;DHT22;10132;50.864;5.176;2023-02-15T07:53:48;2.50;99.90
19941;DHT22;10132;50.864;5.176;2023-02-15T07:55:52;2.50;99.90
19941;DHT22;10132;50.864;5.176;2023-02-15T07:57:55;2.50;99.90
19941;DHT22;10132;50.864;5.176;2023-02-15T07:59:57;2.40;99.90
19941;DHT22;10132;50.864;5.176;2023-02-15T08:01:59;2.50;99.90
19941;DHT22;10132;50.864;5.176;2023-02-15T08:04:01;2.60;99.90
19941;DHT22;10132;50.864;5.176;2023-02-15T08:06:03;2.80;99.90
19941;DHT22;10132;50.864;5.176;2023-02-15T08:08:06;3.20;99.90
19941;DHT22;10132;50.864;5.176;2023-02-15T08:10:08;3.40;99.90
19941;DHT22;10132;50.864;5.176;2023-02-15T08:12:30;3.60;99.90
19941;DHT22;10132;50.864;5.176;2023-02-15T08:14:34;3.60;99.90
19941;DHT22;10132;50.864;5.176;2023-02-15T08:16:37;3.70;99.90
19941;DHT22;10132;50.864;5.176;2023-02-15T08:18:39;3.80;99.90
19941;DHT22;10132;50.864;5.176;2023-02-15T08:20:41;4.00;99.90
19941;DHT22;10132;50.864;5.176;2023-02-15T08:22:43;4.10;99.90
19941;DHT22;10132;50.864;5.176;2023-02-15T08:24:46;4.20;99.90
19941;DHT22;10132;50.864;5.176;2023-02-15T08:26:49;4.30;99.90
19941;DHT22;10132;50.864;5.176;2023-02-15T08:28:51;4.30;99.90
19941;DHT22;10132;50.864;5.176;2023-02-15T08:30:55;4.30;99.90
19941;DHT22;10132;50.864;5.176;2023-02-15T08:32:57;4.40;99.90
19941;DHT22;10132;50.864;5.176;2023-02-15T08:34:59;4.70;99.90
19941;DHT22;10132;50.864;5.176;2023-02-15T08:37:01;4.80;99.90
19941;DHT22;10132;50.864;5.176;2023-02-15T08:39:05;4.90;99.90
19941;DHT22;10132;50.864;5.176;2023-02-15T08:41:12;5.20;99.90
19941;DHT22;10132;50.864;5.176;2023-02-15T08:43:14;5.20;99.90
19941;DHT22;10132;50.864;5.176;2023-02-15T08:45:16;5.40;99.90
19941;DHT22;10132;50.864;5.176;2023-02-15T08:47:19;5.60;99.90
19941;DHT22;10132;50.864;5.176;2023-02-15T08:49:22;5.90;99.90
19941;DHT22;10132;50.864;5.176;2023-02-15T08:51:26;6.10;99.90
19941;DHT22;10132;50.864;5.176;2023-02-15T08:53:28;6.30;99.90
19941;DHT22;10132;50.864;5.176;2023-02-15T08:55:29;6.30;99.90
19941;DHT22;10132;50.864;5.176;2023-02-15T08:57:31;6.30;99.90
19941;DHT22;10132;50.864;5.176;2023-02-15T08:59:33;6.50;99.90
19941;DHT22;10132;50.864;5.176;2023-02-15T09:01:35;6.80;99.90
19941;DHT22;10132;50.864;5.176;2023-02-15T09:03:39;6.80;99.90
19941;DHT22;10132;50.864;5.176;2023-02-15T09:05:41;7.00;99.90
19941;DHT22;10132;50.864;5.176;2023-02-15T09:07:43;7.20;99.90
19941;DHT22;10132;50.864;5.176;2023-02-15T09:09:45;7.30;99.90
19941;DHT22;10132;50.864;5.176;2023-02-15T09:11:49;7.50;99.90
19941;DHT22;10132;50.864;5.176;2023-02-15T09:13:53;7.60;99.90
19941;DHT22;10132;50.864;5.176;2023-02-15T09:15:59;7.70;99.90
19941;DHT22;10132;50.864;5.176;2023-02-15T09:18:01;7.90;99.90
19941;DHT22;10132;50.864;5.176;2023-02-15T09:20:08;8.10;99.90
19941;DHT22;10132;50.864;5.176;2023-02-15T09:22:11;8.30;99.90
19941;DHT22;10132;50.864;5.176;2023-02-15T09:24:14;8.60;99.90
19941;DHT22;10132;50.864;5.176;2023-02-15T09:26:18;8.80;99.90
19941;DHT22;10132;50.864;5.176;2023-02-15T09:28:20;9.10;99.90
19941;DHT22;10132;50.864;5.176;2023-02-15T09:30:23;9.50;99.90
19941;DHT22;10132;50.864;5.176;2023-02-15T09:32:24;9.70;99.90
19941;DHT22;10132;50.864;5.176;2023-02-15T09:34:26;9.90;99.90
19941;DHT22;10132;50.864;5.176;2023-02-15T09:36:32;9.90;99.90
19941;DHT22;10132;50.864;5.176;2023-02-15T09:38:34;9.90;99.90
19941;DHT22;10132;50.864;5.176;2023-02-15T09:40:42;10.00;99.90
19941;DHT22;10132;50.864;5.176;2023-02-15T09:43:18;10.00;99.90
19941;DHT22;10132;50.864;5.176;2023-02-15T09:45:40;10.10;99.90
19941;DHT22;10132;50.864;5.176;2023-02-15T09:48:05;10.10;99.90
19941;DHT22;10132;50.864;5.176;2023-02-15T09:50:15;10.30;99.90
19941;DHT22;10132;50.864;5.176;2023-02-15T09:52:32;10.50;99.90
19941;DHT22;10132;50.864;5.176;2023-02-15T09:54:45;10.60;99.90
19941;DHT22;10132;50.864;5.176;2023-02-15T09:56:52;11.00;99.90
19941;DHT22;10132;50.864;5.176;2023-02-15T09:59:02;11.10;99.90
19941;DHT22;10132;50.864;5.176;2023-02-15T10:01:13;10.50;99.90
19941;DHT22;10132;50.864;5.176;2023-02-15T10:03:31;10.70;99.90
19941;DHT22;10132;50.864;5.176;2023-02-15T10:05:43;10.90;99.90
19941;DHT22;10132;50.864;5.176;2023-02-15T10:10:27;11.30;99.90
19941;DHT22;10132;50.864;5.176;2023-02-15T10:12:43;11.20;99.90
19941;DHT22;10132;50.864;5.176;2023-02-15T10:15:03;11.30;99.90
19941;DHT22;10132;50.864;5.176;2023-02-15T10:17:19;11.20;99.90
19941;DHT22;10132;50.864;5.176;2023-02-15T10:19:34;11.20;99.90
19941;DHT22;10132;50.864;5.176;2023-02-15T10:21:48;11.30;99.90
19941;DHT22;10132;50.864;5.176;2023-02-15T10:24:19;11.20;99.90
19941;DHT22;10132;50.864;5.176;2023-02-15T10:26:30;11.20;99.90
19941;DHT22;10132;50.864;5.176;2023-02-15T10:28:42;11.30;99.90
19941;DHT22;10132;50.864;5.176;2023-02-15T10:30:48;11.20;99.90
19941;DHT22;10132;50.864;5.176;2023-02-15T10:32:58;11.30;99.90
19941;DHT22;10132;50.864;5.176;2023-02-15T10:35:03;11.50;99.90
19941;DHT22;10132;50.864;5.176;2023-02-15T10:37:21;11.90;99.90
19941;DHT22;10132;50.864;5.176;2023-02-15T10:39:33;12.00;99.90
19941;DHT22;10132;50.864;5.176;2023-02-15T10:41:44;12.20;99.90
19941;DHT22;10132;50.864;5.176;2023-02-15T10:44:05;12.50;99.90
19941;DHT22;10132;50.864;5.176;2023-02-15T10:46:21;12.60;99.90
19941;DHT22;10132;50.864;5.176;2023-02-15T10:48:39;12.80;99.90
19941;DHT22;10132;50.864;5.176;2023-02-15T10:50:47;12.70;99.90
19941;DHT22;10132;50.864;5.176;2023-02-15T10:53:05;12.70;99.90
19941;DHT22;10132;50.864;5.176;2023-02-15T10:55:17;12.90;99.90
19941;DHT22;10132;50.864;5.176;2023-02-15T10:57:25;13.10;99.90
19941;DHT22;10132;50.864;5.176;2023-02-15T10:59:45;13.30;99.90
19941;DHT22;10132;50.864;5.176;2023-02-15T11:01:57;13.30;99.90
19941;DHT22;10132;50.864;5.176;2023-02-15T11:06:35;13.20;99.90
19941;DHT22;10132;50.864;5.176;2023-02-15T11:08:41;13.70;99.90
19941;DHT22;10132;50.864;5.176;2023-02-15T11:10:49;13.50;99.90
19941;DHT22;10132;50.864;5.176;2023-02-15T11:12:54;13.00;99.90
19941;DHT22;10132;50.864;5.176;2023-02-15T11:15:00;13.10;99.90
19941;DHT22;10132;50.864;5.176;2023-02-15T11:17:07;13.10;99.90
19941;DHT22;10132;50.864;5.176;2023-02-15T11:19:14;13.10;99.90
19941;DHT22;10132;50.864;5.176;2023-02-15T11:21:22;13.20;99.90
19941;DHT22;10132;50.864;5.176;2023-02-15T11:23:26;13.10;99.90
19941;DHT22;10132;50.864;5.176;2023-02-15T11:25:30;13.10;99.90
19941;DHT22;10132;50.864;5.176;2023-02-15T11:27:35;13.10;99.90
19941;DHT22;10132;50.864;5.176;2023-02-15T11:29:41;13.20;99.90
19941;DHT22;10132;50.864;5.176;2023-02-15T11:31:45;13.20;99.90
19941;DHT22;10132;50.864;5.176;2023-02-15T11:33:51;13.00;99.90
19941;DHT22;10132;50.864;5.176;2023-02-15T11:35:57;12.90;99.90
19941;DHT22;10132;50.864;5.176;2023-02-15T11:38:06;12.70;99.90
19941;DHT22;10132;50.864;5.176;2023-02-15T11:40:19;12.80;99.90
19941;DHT22;10132;50.864;5.176;2023-02-15T11:42:33;13.40;99.90
19941;DHT22;10132;50.864;5.176;2023-02-15T11:44:39;13.40;99.90
19941;DHT22;10132;50.864;5.176;2023-02-15T11:46:44;13.80;99.90
19941;DHT22;10132;50.864;5.176;2023-02-15T11:48:46;13.70;99.90
19941;DHT22;10132;50.864;5.176;2023-02-15T11:50:48;13.80;99.90
19941;DHT22;10132;50.864;5.176;2023-02-15T11:52:51;13.70;99.90
19941;DHT22;10132;50.864;5.176;2023-02-15T11:54:53;13.50;99.90
19941;DHT22;10132;50.864;5.176;2023-02-15T11:56:56;13.20;99.90
19941;DHT22;10132;50.864;5.176;2023-02-15T11:59:05;13.30;99.90
19941;DHT22;10132;50.864;5.176;2023-02-15T12:01:15;13.60;99.90
19941;DHT22;10132;50.864;5.176;2023-02-15T12:03:21;13.80;99.90
19941;DHT22;10132;50.864;5.176;2023-02-15T12:05:25;13.70;99.90
19941;DHT22;10132;50.864;5.176;2023-02-15T12:07:30;13.50;99.90
19941;DHT22;10132;50.864;5.176;2023-02-15T12:09:36;13.00;99.90
19941;DHT22;10132;50.864;5.176;2023-02-15T12:11:40;12.80;99.90
19941;DHT22;10132;50.864;5.176;2023-02-15T12:13:58;12.90;99.90
19941;DHT22;10132;50.864;5.176;2023-02-15T12:16:07;13.00;99.90
19941;DHT22;10132;50.864;5.176;2023-02-15T12:18:20;13.10;99.90
19941;DHT22;10132;50.864;5.176;2023-02-15T12:20:28;13.30;99.90
19941;DHT22;10132;50.864;5.176;2023-02-15T12:22:32;13.60;99.90
19941;DHT22;10132;50.864;5.176;2023-02-15T12:24:37;13.50;99.90
19941;DHT22;10132;50.864;5.176;2023-02-15T12:26:55;13.20;99.90
19941;DHT22;10132;50.864;5.176;2023-02-15T12:29:00;13.50;99.90
19941;DHT22;10132;50.864;5.176;2023-02-15T12:31:10;13.60;99.90
19941;DHT22;10132;50.864;5.176;2023-02-15T12:33:26;13.50;99.90
19941;DHT22;10132;50.864;5.176;2023-02-15T12:35:31;13.50;99.90
19941;DHT22;10132;50.864;5.176;2023-02-15T12:37:34;13.40;99.90
19941;DHT22;10132;50.864;5.176;2023-02-15T12:39:36;13.60;99.90
19941;DHT22;10132;50.864;5.176;2023-02-15T12:41:40;13.70;99.90
19941;DHT22;10132;50.864;5.176;2023-02-15T12:43:45;14.00;99.90
19941;DHT22;10132;50.864;5.176;2023-02-15T12:45:47;13.90;99.90
19941;DHT22;10132;50.864;5.176;2023-02-15T12:48:08;13.80;99.90
19941;DHT22;10132;50.864;5.176;2023-02-15T12:50:16;13.40;99.90
19941;DHT22;10132;50.864;5.176;2023-02-15T12:52:24;13.10;99.90
19941;DHT22;10132;50.864;5.176;2023-02-15T12:54:35;13.00;99.90
19941;DHT22;10132;50.864;5.176;2023-02-15T12:56:39;13.10;99.90
19941;DHT22;10132;50.864;5.176;2023-02-15T12:58:41;13.60;99.90
19941;DHT22;10132;50.864;5.176;2023-02-15T13:00:46;14.00;99.90
19941;DHT22;10132;50.864;5.176;2023-02-15T13:02:52;14.10;99.90
19941;DHT22;10132;50.864;5.176;2023-02-15T13:04:56;13.80;99.90
19941;DHT22;10132;50.864;5.176;2023-02-15T13:07:00;14.00;99.90
19941;DHT22;10132;50.864;5.176;2023-02-15T13:09:07;13.80;99.90
19941;DHT22;10132;50.864;5.176;2023-02-15T13:11:20;14.10;99.90
19941;DHT22;10132;50.864;5.176;2023-02-15T13:13:25;14.00;99.90
19941;DHT22;10132;50.864;5.176;2023-02-15T13:15:32;13.80;99.90
19941;DHT22;10132;50.864;5.176;2023-02-15T13:17:35;13.90;99.90
19941;DHT22;10132;50.864;5.176;2023-02-15T13:19:42;13.70;99.90
19941;DHT22;10132;50.864;5.176;2023-02-15T13:21:47;13.50;99.90
19941;DHT22;10132;50.864;5.176;2023-02-15T13:23:52;13.50;99.90
19941;DHT22;10132;50.864;5.176;2023-02-15T13:25:57;13.20;99.90
19941;DHT22;10132;50.864;5.176;2023-02-15T13:28:01;13.20;99.90